Terminal Aerodrome Forecast
Issued by NWS

Home | Current Version | Previous Version | Text Only | Print | Product List | Glossary On
Versions: 1 2 3 4 5 6 7 8 9 10 11 12 13 14 15 16 17
809
FTUS44 KSJT 022355 AAA
TAFSOA
TAF AMD
KSOA 022355Z 0300/0324 09008KT 6SM -DZ BR OVC025
      TEMPO 0300/0303 3SM -RA BR OVC009
     FM030300 07010KT 3SM -RA BR OVC005
     FM030700 05011KT 2SM -RA BR OVC005=

USA.gov is the U.S. government's official web portal to all federal, state and local government web resources and services.